Sakura Princess — D5BI8 — position and weather

sailwx.info

Track history (hours):
 
Tides and Currents Weather Stations Pressure Air Temp Water Temp Dewpoint Dewpoint Depression Visibility Wind Speed Wind Dir Waves Ship Positions

Sakura Princess

Last reported at 2017-Sep-14 18:19 UTC. Time now 2017-Sep-21 12:23 UTC.
Position N 35°45' W 010°30'.

Length 228 m; draft 13.1 m.

Type: Tanker. MMSI: 636015526.

Date/timePositionNaut miles runAvg speedWind from/ knotsBaromVisibWave heightAir tempDewpointWater temp
2017-Sep-14 18:19N 35°45' W 010°30'412.3
2017-Sep-14 17:58N 35°46' W 010°24'612.3
2017-Sep-14 17:30N 35°47' W 010°17'612.3
2017-Sep-14 17:00N 35°48' W 010°10'812.3
2017-Sep-14 16:21N 35°49' W 010°00'612.2
2017-Sep-14 15:54N 35°50' W 009°54'512.1
2017-Sep-14 15:30N 35°51' W 009°48'612.3
2017-Sep-14 15:00N 35°52' W 009°40'612.5
2017-Sep-14 14:30N 35°53' W 009°33'3711.9
2017-Sep-14 11:21N 35°59' W 008°47'411.7
2017-Sep-14 10:58N 35°59' W 008°42'511.7
2017-Sep-14 10:30N 35°59' W 008°35'612.1
2017-Sep-14 10:00N 35°59' W 008°27'1112.3
2017-Sep-14 09:05N 35°59' W 008°13'212.2
2017-Sep-14 08:53N 35°59' W 008°10'712.3
2017-Sep-14 08:17N 35°59' W 008°01'512.6
2017-Sep-14 07:53N 35°59' W 007°55'612.5
2017-Sep-14 07:26N 35°59' W 007°48'912.7
2017-Sep-14 06:45N 35°59' W 007°37'312.7
2017-Sep-14 06:29N 35°59' W 007°33'812.6
2017-Sep-14 05:52N 35°59' W 007°23'512.6
2017-Sep-14 05:30N 35°59' W 007°18'612.7
2017-Sep-14 05:00N 35°59' W 007°10'7412.1
2017-Sep-13 22:56N 35°58' W 005°39'511.1
2017-Sep-13 22:30N 35°59' W 005°33'611.6
2017-Sep-13 22:00N 36°01' W 005°26'611.1
2017-Sep-13 21:30N 36°03' W 005°20'5 9.3
2017-Sep-13 20:59N 36°06' W 005°15'1 3.0
2017-Sep-13 20:30N 36°06' W 005°14'21411.6
2017-Sep-13 02:01N 36°38' W 000°51'412.7
2017-Sep-13 01:41N 36°39' W 000°46'312.7
2017-Sep-13 01:26N 36°39' W 000°42'512.6
2017-Sep-13 01:00N 36°40' W 000°35'3012.5
2017-Sep-12 22:38N 36°47' E 000°01'212.3
2017-Sep-12 22:28N 36°47' E 000°04'1212.5
2017-Sep-12 21:32N 36°49' E 000°18'012.7
2017-Sep-12 21:30N 36°49' E 000°18'812.5
2017-Sep-12 20:51N 36°50' E 000°28'512.5
2017-Sep-12 20:26N 36°51' E 000°35'512.6
2017-Sep-12 20:00N 36°52' E 000°42'1412.8
2017-Sep-12 18:55N 36°55' E 000°59'512.7
2017-Sep-12 18:30N 36°56' E 001°05'13212.3
2017-Sep-12 07:48N 37°20' E 003°47'812.2
2017-Sep-12 07:07N 37°22' E 003°57'212.4
2017-Sep-12 07:00N 37°22' E 003°59'612.3
2017-Sep-12 06:29N 37°23' E 004°07'612.4
2017-Sep-12 06:00N 37°25' E 004°14'612.5
2017-Sep-12 05:30N 37°26' E 004°22'612.4
2017-Sep-12 05:00N 37°27' E 004°30'612.6
2017-Sep-12 04:31N 37°28' E 004°37'612.7
2017-Sep-12 04:00N 37°29' E 004°45'612.7
2017-Sep-12 03:30N 37°30' E 004°53'712.7
2017-Sep-12 02:59N 37°32' E 005°01'3812.4
2017-Sep-11 23:55N 37°39' E 005°49'511.9
2017-Sep-11 23:30N 37°39' E 005°55'611.9
2017-Sep-11 23:00N 37°39' E 006°02'611.5
2017-Sep-11 22:30N 37°39' E 006°10'297 9.8
2017-Sep-10 16:13N 37°01' E 012°20'211.6
2017-Sep-10 16:00N 37°01' E 012°23'611.9
2017-Sep-10 15:30N 36°59' E 012°30'611.8
2017-Sep-10 15:00N 36°57' E 012°37'1211.9
2017-Sep-10 14:00N 36°54' E 012°51'611.8
2017-Sep-10 13:30N 36°52' E 012°59'611.5
2017-Sep-10 13:00N 36°51' E 013°05'611.7
2017-Sep-10 12:30N 36°48' E 013°12'611.7
2017-Sep-10 12:00N 36°46' E 013°19'611.6
2017-Sep-10 11:30N 36°44' E 013°25'611.4
2017-Sep-10 11:00N 36°42' E 013°32'611.3
2017-Sep-10 10:30N 36°40' E 013°39'611.2
2017-Sep-10 10:00N 36°39' E 013°46'611.3
2017-Sep-10 09:30N 36°37' E 013°52'611.4
2017-Sep-10 09:00N 36°36' E 013°59'611.2
2017-Sep-10 08:30N 36°34' E 014°06'611.1
2017-Sep-10 08:00N 36°33' E 014°12'611.2
2017-Sep-10 07:30N 36°31' E 014°19'611.7
2017-Sep-10 07:00N 36°28' E 014°25'611.9
2017-Sep-10 06:30N 36°25' E 014°32'612.0
2017-Sep-10 06:00N 36°23' E 014°39'611.7
2017-Sep-10 05:30N 36°23' E 014°46'611.9
2017-Sep-10 04:59N 36°23' E 014°54'611.9
2017-Sep-10 04:30N 36°24' E 015°01'612.5
2017-Sep-10 04:00N 36°25' E 015°09'22 0.5
2017-Sep-08 09:16N 36°23' E 014°42'414.4
2017-Sep-08 09:00N 36°22' E 014°37'714.5
2017-Sep-08 08:30N 36°24' E 014°28'714.5
2017-Sep-08 08:00N 36°27' E 014°20'713.8
2017-Sep-08 07:30N 36°29' E 014°12'713.0
2017-Sep-08 07:00N 36°31' E 014°04'713.1
2017-Sep-08 06:29N 36°33' E 013°56'913.4
2017-Sep-08 05:49N 36°36' E 013°45'413.3
2017-Sep-08 05:29N 36°37' E 013°40'713.3
2017-Sep-08 04:58N 36°39' E 013°32'613.2
2017-Sep-08 04:29N 36°41' E 013°25'613.1
2017-Sep-08 04:00N 36°44' E 013°18'43312.7
2017-Sep-06 17:53N 37°10' E 004°17'512.9
2017-Sep-06 17:30N 37°09' E 004°11'712.9
2017-Sep-06 17:00N 37°09' E 004°03'612.8
2017-Sep-06 16:30N 37°08' E 003°55'612.8
2017-Sep-06 16:00N 37°07' E 003°47'612.8
2017-Sep-06 15:30N 37°07' E 003°39'812.8
2017-Sep-06 14:53N 37°06' E 003°29'512.8
2017-Sep-06 14:28N 37°05' E 003°23'612.9
2017-Sep-06 14:00N 37°04' E 003°15'912.9
2017-Sep-06 13:21N 37°03' E 003°04'412.9
2017-Sep-06 13:00N 37°03' E 002°59'612.9
2017-Sep-06 12:30N 37°02' E 002°51'612.8
2017-Sep-06 12:00N 37°01' E 002°43'612.7
2017-Sep-06 11:30N 36°59' E 002°35'612.5
2017-Sep-06 11:00N 36°58' E 002°28'912.4
2017-Sep-06 10:17N 36°56' E 002°17'312.3
2017-Sep-06 10:00N 36°55' E 002°13'912.3
2017-Sep-06 09:16N 36°53' E 002°02'312.3
2017-Sep-06 09:00N 36°53' E 001°58'612.3
2017-Sep-06 08:30N 36°51' E 001°50'612.2
2017-Sep-06 08:00N 36°50' E 001°43'612.1
2017-Sep-06 07:30N 36°49' E 001°35'612.2
2017-Sep-06 06:59N 36°47' E 001°28'612.7
2017-Sep-06 06:30N 36°46' E 001°20'713.3
2017-Sep-06 06:00N 36°45' E 001°12'713.3
2017-Sep-06 05:30N 36°43' E 001°04'713.6
2017-Sep-06 05:00N 36°40' E 000°56'713.7
2017-Sep-06 04:30N 36°38' E 000°48'713.9
2017-Sep-06 04:00N 36°34' E 000°41'713.7
2017-Sep-06 03:30N 36°31' E 000°33'713.5
2017-Sep-06 03:00N 36°28' E 000°26'713.6
2017-Sep-06 02:29N 36°25' E 000°18'713.5
2017-Sep-06 02:00N 36°22' E 000°11'1813.8
2017-Sep-06 00:42N 36°07' W 000°01'  
Track history (hours):
 
Tides and Currents Weather Stations Pressure Air Temp Water Temp Dewpoint Dewpoint Depression Visibility Wind Speed Wind Dir Waves Ship Positions

Sakura Princess

Last reported at 2017-Sep-14 18:19 UTC. Time now 2017-Sep-21 12:23 UTC.
Position N 35°45' W 010°30'.

Length 228 m; draft 13.1 m.

Type: Tanker. MMSI: 636015526.

Date/timePositionNaut miles runAvg speedWind from/ knotsBaromVisibWave heightAir tempDewpointWater temp
2017-Sep-14 18:19N 35°45' W 010°30'412.3
2017-Sep-14 17:58N 35°46' W 010°24'612.3
2017-Sep-14 17:30N 35°47' W 010°17'612.3
2017-Sep-14 17:00N 35°48' W 010°10'812.3
2017-Sep-14 16:21N 35°49' W 010°00'612.2
2017-Sep-14 15:54N 35°50' W 009°54'512.1
2017-Sep-14 15:30N 35°51' W 009°48'612.3
2017-Sep-14 15:00N 35°52' W 009°40'612.5
2017-Sep-14 14:30N 35°53' W 009°33'3711.9
2017-Sep-14 11:21N 35°59' W 008°47'411.7
2017-Sep-14 10:58N 35°59' W 008°42'511.7
2017-Sep-14 10:30N 35°59' W 008°35'612.1
2017-Sep-14 10:00N 35°59' W 008°27'1112.3
2017-Sep-14 09:05N 35°59' W 008°13'212.2
2017-Sep-14 08:53N 35°59' W 008°10'712.3
2017-Sep-14 08:17N 35°59' W 008°01'512.6
2017-Sep-14 07:53N 35°59' W 007°55'612.5
2017-Sep-14 07:26N 35°59' W 007°48'912.7
2017-Sep-14 06:45N 35°59' W 007°37'312.7
2017-Sep-14 06:29N 35°59' W 007°33'812.6
2017-Sep-14 05:52N 35°59' W 007°23'512.6
2017-Sep-14 05:30N 35°59' W 007°18'612.7
2017-Sep-14 05:00N 35°59' W 007°10'7412.1
2017-Sep-13 22:56N 35°58' W 005°39'511.1
2017-Sep-13 22:30N 35°59' W 005°33'611.6
2017-Sep-13 22:00N 36°01' W 005°26'611.1
2017-Sep-13 21:30N 36°03' W 005°20'5 9.3
2017-Sep-13 20:59N 36°06' W 005°15'1 3.0
2017-Sep-13 20:30N 36°06' W 005°14'21411.6
2017-Sep-13 02:01N 36°38' W 000°51'412.7
2017-Sep-13 01:41N 36°39' W 000°46'312.7
2017-Sep-13 01:26N 36°39' W 000°42'512.6
2017-Sep-13 01:00N 36°40' W 000°35'3012.5
2017-Sep-12 22:38N 36°47' E 000°01'212.3
2017-Sep-12 22:28N 36°47' E 000°04'1212.5
2017-Sep-12 21:32N 36°49' E 000°18'012.7
2017-Sep-12 21:30N 36°49' E 000°18'812.5
2017-Sep-12 20:51N 36°50' E 000°28'512.5
2017-Sep-12 20:26N 36°51' E 000°35'512.6
2017-Sep-12 20:00N 36°52' E 000°42'1412.8
2017-Sep-12 18:55N 36°55' E 000°59'512.7
2017-Sep-12 18:30N 36°56' E 001°05'13212.3
2017-Sep-12 07:48N 37°20' E 003°47'812.2
2017-Sep-12 07:07N 37°22' E 003°57'212.4
2017-Sep-12 07:00N 37°22' E 003°59'612.3
2017-Sep-12 06:29N 37°23' E 004°07'612.4
2017-Sep-12 06:00N 37°25' E 004°14'612.5
2017-Sep-12 05:30N 37°26' E 004°22'612.4
2017-Sep-12 05:00N 37°27' E 004°30'612.6
2017-Sep-12 04:31N 37°28' E 004°37'612.7
2017-Sep-12 04:00N 37°29' E 004°45'612.7
2017-Sep-12 03:30N 37°30' E 004°53'712.7
2017-Sep-12 02:59N 37°32' E 005°01'3812.4
2017-Sep-11 23:55N 37°39' E 005°49'511.9
2017-Sep-11 23:30N 37°39' E 005°55'611.9
2017-Sep-11 23:00N 37°39' E 006°02'611.5
2017-Sep-11 22:30N 37°39' E 006°10'297 9.8
2017-Sep-10 16:13N 37°01' E 012°20'211.6
2017-Sep-10 16:00N 37°01' E 012°23'611.9
2017-Sep-10 15:30N 36°59' E 012°30'611.8
2017-Sep-10 15:00N 36°57' E 012°37'1211.9
2017-Sep-10 14:00N 36°54' E 012°51'611.8
2017-Sep-10 13:30N 36°52' E 012°59'611.5
2017-Sep-10 13:00N 36°51' E 013°05'611.7
2017-Sep-10 12:30N 36°48' E 013°12'611.7
2017-Sep-10 12:00N 36°46' E 013°19'611.6
2017-Sep-10 11:30N 36°44' E 013°25'611.4
2017-Sep-10 11:00N 36°42' E 013°32'611.3
2017-Sep-10 10:30N 36°40' E 013°39'611.2
2017-Sep-10 10:00N 36°39' E 013°46'611.3
2017-Sep-10 09:30N 36°37' E 013°52'611.4
2017-Sep-10 09:00N 36°36' E 013°59'611.2
2017-Sep-10 08:30N 36°34' E 014°06'611.1
2017-Sep-10 08:00N 36°33' E 014°12'611.2
2017-Sep-10 07:30N 36°31' E 014°19'611.7
2017-Sep-10 07:00N 36°28' E 014°25'611.9
2017-Sep-10 06:30N 36°25' E 014°32'612.0
2017-Sep-10 06:00N 36°23' E 014°39'611.7
2017-Sep-10 05:30N 36°23' E 014°46'611.9
2017-Sep-10 04:59N 36°23' E 014°54'611.9
2017-Sep-10 04:30N 36°24' E 015°01'612.5
2017-Sep-10 04:00N 36°25' E 015°09'22 0.5
2017-Sep-08 09:16N 36°23' E 014°42'414.4
2017-Sep-08 09:00N 36°22' E 014°37'714.5
2017-Sep-08 08:30N 36°24' E 014°28'714.5
2017-Sep-08 08:00N 36°27' E 014°20'713.8
2017-Sep-08 07:30N 36°29' E 014°12'713.0
2017-Sep-08 07:00N 36°31' E 014°04'713.1
2017-Sep-08 06:29N 36°33' E 013°56'913.4
2017-Sep-08 05:49N 36°36' E 013°45'413.3
2017-Sep-08 05:29N 36°37' E 013°40'713.3
2017-Sep-08 04:58N 36°39' E 013°32'613.2
2017-Sep-08 04:29N 36°41' E 013°25'613.1
2017-Sep-08 04:00N 36°44' E 013°18'43312.7
2017-Sep-06 17:53N 37°10' E 004°17'512.9
2017-Sep-06 17:30N 37°09' E 004°11'712.9
2017-Sep-06 17:00N 37°09' E 004°03'612.8
2017-Sep-06 16:30N 37°08' E 003°55'612.8
2017-Sep-06 16:00N 37°07' E 003°47'612.8
2017-Sep-06 15:30N 37°07' E 003°39'812.8
2017-Sep-06 14:53N 37°06' E 003°29'512.8
2017-Sep-06 14:28N 37°05' E 003°23'612.9
2017-Sep-06 14:00N 37°04' E 003°15'912.9
2017-Sep-06 13:21N 37°03' E 003°04'412.9
2017-Sep-06 13:00N 37°03' E 002°59'612.9
2017-Sep-06 12:30N 37°02' E 002°51'612.8
2017-Sep-06 12:00N 37°01' E 002°43'612.7
2017-Sep-06 11:30N 36°59' E 002°35'612.5
2017-Sep-06 11:00N 36°58' E 002°28'912.4
2017-Sep-06 10:17N 36°56' E 002°17'312.3
2017-Sep-06 10:00N 36°55' E 002°13'912.3
2017-Sep-06 09:16N 36°53' E 002°02'312.3
2017-Sep-06 09:00N 36°53' E 001°58'612.3
2017-Sep-06 08:30N 36°51' E 001°50'612.2
2017-Sep-06 08:00N 36°50' E 001°43'612.1
2017-Sep-06 07:30N 36°49' E 001°35'612.2
2017-Sep-06 06:59N 36°47' E 001°28'612.7
2017-Sep-06 06:30N 36°46' E 001°20'713.3
2017-Sep-06 06:00N 36°45' E 001°12'713.3
2017-Sep-06 05:30N 36°43' E 001°04'713.6
2017-Sep-06 05:00N 36°40' E 000°56'713.7
2017-Sep-06 04:30N 36°38' E 000°48'713.9
2017-Sep-06 04:00N 36°34' E 000°41'713.7
2017-Sep-06 03:30N 36°31' E 000°33'713.5
2017-Sep-06 03:00N 36°28' E 000°26'713.6
2017-Sep-06 02:29N 36°25' E 000°18'713.5
2017-Sep-06 02:00N 36°22' E 000°11'1813.8
2017-Sep-06 00:42N 36°07' W 000°01'  

Dump ship's entire track history